sensor_id;sensor_type;location;lat;lon;timestamp;P1;durP1;ratioP1;P2;durP2;ratioP2
42768;SDS011;28423;60.010;30.406;2022-09-09T00:01:37;9.20;;;2.97;;
42768;SDS011;28423;60.010;30.406;2022-09-09T00:04:00;9.13;;;3.17;;
42768;SDS011;28423;60.010;30.406;2022-09-09T00:06:28;6.72;;;3.20;;
42768;SDS011;28423;60.010;30.406;2022-09-09T00:08:59;6.93;;;2.53;;
42768;SDS011;28423;60.010;30.406;2022-09-09T00:12:00;8.75;;;3.25;;
42768;SDS011;28423;60.010;30.406;2022-09-09T00:17:04;7.38;;;4.15;;
42768;SDS011;28423;60.010;30.406;2022-09-09T00:19:58;12.07;;;4.03;;
42768;SDS011;28423;60.010;30.406;2022-09-09T00:22:30;12.95;;;5.68;;
42768;SDS011;28423;60.010;30.406;2022-09-09T00:24:59;7.65;;;3.70;;
42768;SDS011;28423;60.010;30.406;2022-09-09T00:27:44;9.07;;;4.32;;
42768;SDS011;28423;60.010;30.406;2022-09-09T00:32:55;6.35;;;3.33;;
42768;SDS011;28423;60.010;30.406;2022-09-09T00:35:31;7.50;;;3.42;;
42768;SDS011;28423;60.010;30.406;2022-09-09T00:38:09;9.07;;;3.60;;
42768;SDS011;28423;60.010;30.406;2022-09-09T00:40:45;9.18;;;3.72;;
42768;SDS011;28423;60.010;30.406;2022-09-09T00:43:25;7.03;;;3.40;;
42768;SDS011;28423;60.010;30.406;2022-09-09T00:46:05;6.45;;;3.33;;
42768;SDS011;28423;60.010;30.406;2022-09-09T00:49:19;14.15;;;4.65;;
42768;SDS011;28423;60.010;30.406;2022-09-09T00:54:48;9.82;;;3.80;;
42768;SDS011;28423;60.010;30.406;2022-09-09T00:57:34;6.38;;;3.63;;
42768;SDS011;28423;60.010;30.406;2022-09-09T01:00:16;11.75;;;4.45;;
42768;SDS011;28423;60.010;30.406;2022-09-09T01:02:53;7.32;;;3.45;;
42768;SDS011;28423;60.010;30.406;2022-09-09T01:05:45;6.22;;;4.00;;
42768;SDS011;28423;60.010;30.406;2022-09-09T01:10:51;10.23;;;4.30;;
42768;SDS011;28423;60.010;30.406;2022-09-09T01:13:30;12.85;;;4.13;;
42768;SDS011;28423;60.010;30.406;2022-09-09T01:16:03;8.05;;;3.70;;
42768;SDS011;28423;60.010;30.406;2022-09-09T01:18:35;8.82;;;3.97;;
42768;SDS011;28423;60.010;30.406;2022-09-09T01:26:44;9.93;;;4.53;;
42768;SDS011;28423;60.010;30.406;2022-09-09T01:29:20;8.93;;;3.92;;
42768;SDS011;28423;60.010;30.406;2022-09-09T01:32:03;9.82;;;4.28;;
42768;SDS011;28423;60.010;30.406;2022-09-09T01:35:03;9.70;;;4.15;;
42768;SDS011;28423;60.010;30.406;2022-09-09T01:37:29;8.40;;;5.00;;
42768;SDS011;28423;60.010;30.406;2022-09-09T01:39:55;9.68;;;4.32;;
42768;SDS011;28423;60.010;30.406;2022-09-09T01:42:20;10.80;;;3.88;;
42768;SDS011;28423;60.010;30.406;2022-09-09T01:44:46;13.35;;;5.72;;
42768;SDS011;28423;60.010;30.406;2022-09-09T01:47:12;10.35;;;5.00;;
42768;SDS011;28423;60.010;30.406;2022-09-09T01:50:00;7.93;;;4.68;;
42768;SDS011;28423;60.010;30.406;2022-09-09T01:52:28;11.30;;;5.43;;
42768;SDS011;28423;60.010;30.406;2022-09-09T01:54:55;12.32;;;5.63;;
42768;SDS011;28423;60.010;30.406;2022-09-09T01:57:25;9.05;;;5.10;;
42768;SDS011;28423;60.010;30.406;2022-09-09T02:00:01;13.43;;;4.38;;
42768;SDS011;28423;60.010;30.406;2022-09-09T02:02:52;14.70;;;5.40;;
42768;SDS011;28423;60.010;30.406;2022-09-09T02:09:01;10.18;;;4.22;;
42768;SDS011;28423;60.010;30.406;2022-09-09T02:11:29;9.52;;;4.65;;
42768;SDS011;28423;60.010;30.406;2022-09-09T02:14:18;8.95;;;4.80;;
42768;SDS011;28423;60.010;30.406;2022-09-09T02:16:55;11.02;;;4.72;;
42768;SDS011;28423;60.010;30.406;2022-09-09T02:19:35;8.85;;;4.25;;
42768;SDS011;28423;60.010;30.406;2022-09-09T02:22:26;10.00;;;4.60;;
42768;SDS011;28423;60.010;30.406;2022-09-09T02:24:53;12.93;;;4.05;;
42768;SDS011;28423;60.010;30.406;2022-09-09T02:27:25;10.93;;;4.03;;
42768;SDS011;28423;60.010;30.406;2022-09-09T02:29:51;9.35;;;3.15;;
42768;SDS011;28423;60.010;30.406;2022-09-09T02:32:24;7.53;;;3.78;;
42768;SDS011;28423;60.010;30.406;2022-09-09T02:34:53;6.60;;;3.90;;
42768;SDS011;28423;60.010;30.406;2022-09-09T02:37:22;6.82;;;3.38;;
42768;SDS011;28423;60.010;30.406;2022-09-09T02:39:52;5.88;;;3.25;;
42768;SDS011;28423;60.010;30.406;2022-09-09T02:42:20;8.40;;;4.75;;
42768;SDS011;28423;60.010;30.406;2022-09-09T02:44:46;10.10;;;4.13;;
42768;SDS011;28423;60.010;30.406;2022-09-09T02:52:59;5.90;;;3.83;;
42768;SDS011;28423;60.010;30.406;2022-09-09T02:57:55;9.73;;;6.15;;
42768;SDS011;28423;60.010;30.406;2022-09-09T03:00:23;7.07;;;3.40;;
42768;SDS011;28423;60.010;30.406;2022-09-09T03:02:51;7.50;;;3.70;;
42768;SDS011;28423;60.010;30.406;2022-09-09T03:05:16;12.73;;;3.67;;
42768;SDS011;28423;60.010;30.406;2022-09-09T03:07:42;11.43;;;4.30;;
42768;SDS011;28423;60.010;30.406;2022-09-09T03:10:08;9.60;;;4.28;;
42768;SDS011;28423;60.010;30.406;2022-09-09T03:12:36;6.22;;;3.50;;
42768;SDS011;28423;60.010;30.406;2022-09-09T03:15:02;5.65;;;3.05;;
42768;SDS011;28423;60.010;30.406;2022-09-09T03:17:27;8.68;;;2.90;;
42768;SDS011;28423;60.010;30.406;2022-09-09T03:19:54;6.88;;;2.83;;
42768;SDS011;28423;60.010;30.406;2022-09-09T03:22:21;4.95;;;3.15;;
42768;SDS011;28423;60.010;30.406;2022-09-09T03:24:47;4.80;;;2.55;;
42768;SDS011;28423;60.010;30.406;2022-09-09T03:27:13;5.55;;;2.47;;
42768;SDS011;28423;60.010;30.406;2022-09-09T03:29:39;6.28;;;2.95;;
42768;SDS011;28423;60.010;30.406;2022-09-09T03:32:09;5.03;;;2.33;;
42768;SDS011;28423;60.010;30.406;2022-09-09T03:34:36;4.18;;;1.90;;
42768;SDS011;28423;60.010;30.406;2022-09-09T03:37:06;6.03;;;2.17;;
42768;SDS011;28423;60.010;30.406;2022-09-09T03:39:31;4.18;;;2.05;;
42768;SDS011;28423;60.010;30.406;2022-09-09T03:41:58;4.90;;;1.92;;
42768;SDS011;28423;60.010;30.406;2022-09-09T03:44:23;4.53;;;2.28;;
42768;SDS011;28423;60.010;30.406;2022-09-09T03:46:49;4.35;;;2.30;;
42768;SDS011;28423;60.010;30.406;2022-09-09T03:49:15;5.55;;;2.80;;
42768;SDS011;28423;60.010;30.406;2022-09-09T03:51:40;5.35;;;1.90;;
42768;SDS011;28423;60.010;30.406;2022-09-09T03:54:07;5.68;;;2.08;;
42768;SDS011;28423;60.010;30.406;2022-09-09T03:56:36;4.18;;;2.00;;
42768;SDS011;28423;60.010;30.406;2022-09-09T03:59:02;5.97;;;2.15;;
42768;SDS011;28423;60.010;30.406;2022-09-09T04:01:29;4.03;;;1.85;;
42768;SDS011;28423;60.010;30.406;2022-09-09T04:03:55;4.75;;;2.28;;
42768;SDS011;28423;60.010;30.406;2022-09-09T04:06:23;6.45;;;2.28;;
42768;SDS011;28423;60.010;30.406;2022-09-09T04:08:49;6.88;;;2.00;;
42768;SDS011;28423;60.010;30.406;2022-09-09T04:11:18;6.90;;;1.80;;
42768;SDS011;28423;60.010;30.406;2022-09-09T04:13:45;3.58;;;1.80;;
42768;SDS011;28423;60.010;30.406;2022-09-09T04:16:12;7.80;;;1.80;;
42768;SDS011;28423;60.010;30.406;2022-09-09T04:18:41;5.07;;;2.13;;
42768;SDS011;28423;60.010;30.406;2022-09-09T04:21:08;4.10;;;2.05;;
42768;SDS011;28423;60.010;30.406;2022-09-09T04:23:34;7.45;;;2.70;;
42768;SDS011;28423;60.010;30.406;2022-09-09T04:26:02;5.57;;;1.40;;
42768;SDS011;28423;60.010;30.406;2022-09-09T04:28:32;6.22;;;1.83;;
42768;SDS011;28423;60.010;30.406;2022-09-09T04:31:10;4.65;;;1.95;;
42768;SDS011;28423;60.010;30.406;2022-09-09T04:33:40;3.03;;;1.50;;
42768;SDS011;28423;60.010;30.406;2022-09-09T04:36:07;5.93;;;1.58;;
42768;SDS011;28423;60.010;30.406;2022-09-09T04:38:33;3.78;;;1.98;;
42768;SDS011;28423;60.010;30.406;2022-09-09T04:41:00;5.32;;;2.47;;
42768;SDS011;28423;60.010;30.406;2022-09-09T04:43:26;4.72;;;1.63;;
42768;SDS011;28423;60.010;30.406;2022-09-09T04:45:53;4.68;;;1.63;;
42768;SDS011;28423;60.010;30.406;2022-09-09T04:48:22;4.65;;;1.88;;
42768;SDS011;28423;60.010;30.406;2022-09-09T04:50:58;4.22;;;1.90;;
42768;SDS011;28423;60.010;30.406;2022-09-09T04:53:31;2.63;;;1.73;;
42768;SDS011;28423;60.010;30.406;2022-09-09T04:58:32;8.45;;;2.47;;
42768;SDS011;28423;60.010;30.406;2022-09-09T05:01:08;4.45;;;2.15;;
42768;SDS011;28423;60.010;30.406;2022-09-09T05:03:36;5.78;;;2.05;;
42768;SDS011;28423;60.010;30.406;2022-09-09T05:06:09;4.68;;;2.30;;
42768;SDS011;28423;60.010;30.406;2022-09-09T05:08:36;3.38;;;1.85;;
42768;SDS011;28423;60.010;30.406;2022-09-09T05:11:03;5.32;;;2.33;;
42768;SDS011;28423;60.010;30.406;2022-09-09T05:13:36;6.28;;;2.70;;
42768;SDS011;28423;60.010;30.406;2022-09-09T05:16:02;8.85;;;2.67;;
42768;SDS011;28423;60.010;30.406;2022-09-09T05:18:28;6.63;;;2.08;;
42768;SDS011;28423;60.010;30.406;2022-09-09T05:20:58;6.20;;;1.80;;
42768;SDS011;28423;60.010;30.406;2022-09-09T05:23:24;6.78;;;2.47;;
42768;SDS011;28423;60.010;30.406;2022-09-09T05:25:56;7.03;;;3.13;;
42768;SDS011;28423;60.010;30.406;2022-09-09T05:28:24;7.38;;;3.22;;
42768;SDS011;28423;60.010;30.406;2022-09-09T05:30:55;5.18;;;2.83;;
42768;SDS011;28423;60.010;30.406;2022-09-09T05:33:27;4.25;;;2.13;;
42768;SDS011;28423;60.010;30.406;2022-09-09T05:35:57;9.65;;;2.53;;
42768;SDS011;28423;60.010;30.406;2022-09-09T05:38:23;4.32;;;2.17;;
42768;SDS011;28423;60.010;30.406;2022-09-09T05:40:52;8.27;;;2.28;;
42768;SDS011;28423;60.010;30.406;2022-09-09T05:43:18;6.78;;;2.80;;
42768;SDS011;28423;60.010;30.406;2022-09-09T05:45:48;7.10;;;2.35;;
42768;SDS011;28423;60.010;30.406;2022-09-09T05:48:14;7.13;;;2.75;;
42768;SDS011;28423;60.010;30.406;2022-09-09T05:50:41;6.47;;;2.22;;
42768;SDS011;28423;60.010;30.406;2022-09-09T05:53:08;5.60;;;2.33;;
42768;SDS011;28423;60.010;30.406;2022-09-09T05:55:35;7.45;;;2.50;;
42768;SDS011;28423;60.010;30.406;2022-09-09T05:58:02;7.40;;;2.92;;
42768;SDS011;28423;60.010;30.406;2022-09-09T06:00:28;7.93;;;2.47;;
42768;SDS011;28423;60.010;30.406;2022-09-09T06:02:57;7.38;;;2.80;;
42768;SDS011;28423;60.010;30.406;2022-09-09T06:05:22;6.10;;;2.60;;
42768;SDS011;28423;60.010;30.406;2022-09-09T06:07:51;8.70;;;2.22;;
42768;SDS011;28423;60.010;30.406;2022-09-09T06:10:18;7.53;;;2.58;;
42768;SDS011;28423;60.010;30.406;2022-09-09T06:12:45;3.55;;;2.20;;
42768;SDS011;28423;60.010;30.406;2022-09-09T06:15:11;7.63;;;2.97;;
42768;SDS011;28423;60.010;30.406;2022-09-09T06:17:37;6.07;;;2.42;;
42768;SDS011;28423;60.010;30.406;2022-09-09T06:20:04;14.20;;;3.78;;
42768;SDS011;28423;60.010;30.406;2022-09-09T06:22:31;7.80;;;2.75;;
42768;SDS011;28423;60.010;30.406;2022-09-09T06:24:57;8.10;;;2.40;;
42768;SDS011;28423;60.010;30.406;2022-09-09T06:27:22;11.45;;;3.38;;
42768;SDS011;28423;60.010;30.406;2022-09-09T06:29:48;11.32;;;2.95;;
42768;SDS011;28423;60.010;30.406;2022-09-09T06:32:15;6.70;;;2.08;;
42768;SDS011;28423;60.010;30.406;2022-09-09T06:34:40;4.65;;;1.85;;
42768;SDS011;28423;60.010;30.406;2022-09-09T06:37:07;4.85;;;1.90;;
42768;SDS011;28423;60.010;30.406;2022-09-09T06:39:41;7.95;;;2.63;;
42768;SDS011;28423;60.010;30.406;2022-09-09T06:42:07;6.57;;;1.77;;
42768;SDS011;28423;60.010;30.406;2022-09-09T06:44:48;4.55;;;1.58;;
42768;SDS011;28423;60.010;30.406;2022-09-09T06:47:38;5.43;;;1.80;;
42768;SDS011;28423;60.010;30.406;2022-09-09T06:50:04;4.82;;;1.98;;
42768;SDS011;28423;60.010;30.406;2022-09-09T06:52:32;3.30;;;1.60;;
42768;SDS011;28423;60.010;30.406;2022-09-09T06:54:59;6.15;;;1.98;;
42768;SDS011;28423;60.010;30.406;2022-09-09T06:57:25;4.65;;;1.73;;
42768;SDS011;28423;60.010;30.406;2022-09-09T06:59:51;4.90;;;1.75;;
42768;SDS011;28423;60.010;30.406;2022-09-09T07:02:19;4.05;;;1.70;;
42768;SDS011;28423;60.010;30.406;2022-09-09T07:04:46;3.13;;;1.80;;
42768;SDS011;28423;60.010;30.406;2022-09-09T07:07:12;3.67;;;1.67;;
42768;SDS011;28423;60.010;30.406;2022-09-09T07:09:41;3.83;;;2.30;;
42768;SDS011;28423;60.010;30.406;2022-09-09T07:12:07;3.30;;;1.92;;
42768;SDS011;28423;60.010;30.406;2022-09-09T07:14:35;4.25;;;1.80;;
42768;SDS011;28423;60.010;30.406;2022-09-09T07:17:04;6.90;;;2.28;;
42768;SDS011;28423;60.010;30.406;2022-09-09T07:19:35;3.55;;;1.42;;
42768;SDS011;28423;60.010;30.406;2022-09-09T07:22:03;5.05;;;1.77;;
42768;SDS011;28423;60.010;30.406;2022-09-09T07:24:29;4.20;;;2.10;;
42768;SDS011;28423;60.010;30.406;2022-09-09T07:26:56;5.22;;;1.70;;
42768;SDS011;28423;60.010;30.406;2022-09-09T07:29:22;7.05;;;1.67;;
42768;SDS011;28423;60.010;30.406;2022-09-09T07:31:49;3.60;;;1.70;;
42768;SDS011;28423;60.010;30.406;2022-09-09T07:34:21;3.60;;;1.70;;
42768;SDS011;28423;60.010;30.406;2022-09-09T07:36:46;4.63;;;1.40;;
42768;SDS011;28423;60.010;30.406;2022-09-09T07:39:13;5.95;;;1.80;;
42768;SDS011;28423;60.010;30.406;2022-09-09T07:41:46;3.53;;;1.80;;
42768;SDS011;28423;60.010;30.406;2022-09-09T07:44:16;7.13;;;1.83;;
42768;SDS011;28423;60.010;30.406;2022-09-09T07:46:46;3.25;;;1.45;;
42768;SDS011;28423;60.010;30.406;2022-09-09T07:49:16;4.95;;;1.85;;
42768;SDS011;28423;60.010;30.406;2022-09-09T07:51:45;4.82;;;1.75;;
42768;SDS011;28423;60.010;30.406;2022-09-09T07:54:14;3.08;;;1.20;;
42768;SDS011;28423;60.010;30.406;2022-09-09T07:56:43;10.05;;;3.38;;
42768;SDS011;28423;60.010;30.406;2022-09-09T07:59:10;7.13;;;2.60;;
42768;SDS011;28423;60.010;30.406;2022-09-09T08:01:38;6.32;;;2.65;;
42768;SDS011;28423;60.010;30.406;2022-09-09T08:04:11;7.45;;;2.17;;
42768;SDS011;28423;60.010;30.406;2022-09-09T08:06:43;7.20;;;3.17;;
42768;SDS011;28423;60.010;30.406;2022-09-09T08:09:15;4.80;;;1.92;;
42768;SDS011;28423;60.010;30.406;2022-09-09T08:11:41;6.93;;;2.75;;
42768;SDS011;28423;60.010;30.406;2022-09-09T08:14:08;7.35;;;3.30;;
42768;SDS011;28423;60.010;30.406;2022-09-09T08:16:35;7.40;;;2.20;;
42768;SDS011;28423;60.010;30.406;2022-09-09T08:19:04;6.03;;;2.03;;
42768;SDS011;28423;60.010;30.406;2022-09-09T08:21:33;5.60;;;2.70;;
42768;SDS011;28423;60.010;30.406;2022-09-09T08:24:00;7.10;;;1.50;;
42768;SDS011;28423;60.010;30.406;2022-09-09T08:26:28;7.78;;;2.22;;
42768;SDS011;28423;60.010;30.406;2022-09-09T08:28:55;4.43;;;1.80;;
42768;SDS011;28423;60.010;30.406;2022-09-09T08:31:45;3.97;;;1.88;;
42768;SDS011;28423;60.010;30.406;2022-09-09T08:34:20;1.92;;;1.25;;
42768;SDS011;28423;60.010;30.406;2022-09-09T08:36:48;8.95;;;5.05;;
42768;SDS011;28423;60.010;30.406;2022-09-09T08:39:16;11.00;;;5.70;;
42768;SDS011;28423;60.010;30.406;2022-09-09T08:52:29;5.45;;;1.75;;
42768;SDS011;28423;60.010;30.406;2022-09-09T08:57:44;7.68;;;2.63;;
42768;SDS011;28423;60.010;30.406;2022-09-09T09:00:12;7.50;;;2.70;;
42768;SDS011;28423;60.010;30.406;2022-09-09T09:05:28;5.22;;;2.55;;
42768;SDS011;28423;60.010;30.406;2022-09-09T09:12:54;5.53;;;2.13;;
42768;SDS011;28423;60.010;30.406;2022-09-09T09:15:26;3.83;;;2.00;;
42768;SDS011;28423;60.010;30.406;2022-09-09T09:17:55;5.80;;;2.22;;
42768;SDS011;28423;60.010;30.406;2022-09-09T09:20:24;4.45;;;1.80;;
42768;SDS011;28423;60.010;30.406;2022-09-09T09:22:57;4.85;;;1.90;;
42768;SDS011;28423;60.010;30.406;2022-09-09T09:25:34;6.28;;;4.00;;
42768;SDS011;28423;60.010;30.406;2022-09-09T09:28:13;6.15;;;2.30;;
42768;SDS011;28423;60.010;30.406;2022-09-09T09:33:52;4.60;;;2.20;;
42768;SDS011;28423;60.010;30.406;2022-09-09T09:36:16;5.57;;;1.60;;
42768;SDS011;28423;60.010;30.406;2022-09-09T09:41:34;8.88;;;2.63;;
42768;SDS011;28423;60.010;30.406;2022-09-09T09:44:25;3.85;;;1.40;;
42768;SDS011;28423;60.010;30.406;2022-09-09T09:46:51;4.97;;;1.80;;
42768;SDS011;28423;60.010;30.406;2022-09-09T09:49:17;4.10;;;1.45;;
42768;SDS011;28423;60.010;30.406;2022-09-09T09:51:43;3.17;;;1.33;;
42768;SDS011;28423;60.010;30.406;2022-09-09T09:56:38;5.95;;;2.03;;
42768;SDS011;28423;60.010;30.406;2022-09-09T09:59:05;3.90;;;1.55;;
42768;SDS011;28423;60.010;30.406;2022-09-09T10:01:34;2.53;;;1.30;;
42768;SDS011;28423;60.010;30.406;2022-09-09T10:06:54;6.72;;;1.30;;
42768;SDS011;28423;60.010;30.406;2022-09-09T10:11:55;2.13;;;1.08;;
42768;SDS011;28423;60.010;30.406;2022-09-09T10:17:28;2.70;;;1.50;;
42768;SDS011;28423;60.010;30.406;2022-09-09T10:22:33;3.63;;;1.20;;
42768;SDS011;28423;60.010;30.406;2022-09-09T10:38:47;8.80;;;1.85;;
42768;SDS011;28423;60.010;30.406;2022-09-09T10:49:56;1.95;;;1.08;;
42768;SDS011;28423;60.010;30.406;2022-09-09T10:52:29;4.95;;;1.33;;
42768;SDS011;28423;60.010;30.406;2022-09-09T10:55:00;3.83;;;0.90;;
42768;SDS011;28423;60.010;30.406;2022-09-09T11:00:05;2.10;;;1.00;;
42768;SDS011;28423;60.010;30.406;2022-09-09T11:02:36;2.07;;;1.17;;
42768;SDS011;28423;60.010;30.406;2022-09-09T11:07:40;5.60;;;1.50;;
42768;SDS011;28423;60.010;30.406;2022-09-09T11:13:08;5.40;;;1.30;;
42768;SDS011;28423;60.010;30.406;2022-09-09T11:15:41;2.17;;;1.13;;
42768;SDS011;28423;60.010;30.406;2022-09-09T11:18:21;4.38;;;2.00;;
42768;SDS011;28423;60.010;30.406;2022-09-09T11:20:49;5.47;;;1.17;;
42768;SDS011;28423;60.010;30.406;2022-09-09T11:23:18;3.38;;;1.60;;
42768;SDS011;28423;60.010;30.406;2022-09-09T11:26:06;2.10;;;1.10;;
42768;SDS011;28423;60.010;30.406;2022-09-09T11:41:33;4.35;;;1.50;;
42768;SDS011;28423;60.010;30.406;2022-09-09T11:44:08;2.92;;;1.48;;
42768;SDS011;28423;60.010;30.406;2022-09-09T11:46:37;4.68;;;1.70;;
42768;SDS011;28423;60.010;30.406;2022-09-09T11:49:04;8.50;;;2.45;;
42768;SDS011;28423;60.010;30.406;2022-09-09T11:51:32;3.80;;;1.80;;
42768;SDS011;28423;60.010;30.406;2022-09-09T11:53:59;6.22;;;2.22;;
42768;SDS011;28423;60.010;30.406;2022-09-09T11:58:54;4.60;;;1.73;;
42768;SDS011;28423;60.010;30.406;2022-09-09T12:01:26;5.32;;;2.65;;
42768;SDS011;28423;60.010;30.406;2022-09-09T12:04:01;4.28;;;1.40;;
42768;SDS011;28423;60.010;30.406;2022-09-09T12:06:31;3.95;;;1.33;;
42768;SDS011;28423;60.010;30.406;2022-09-09T12:08:58;5.80;;;2.22;;
42768;SDS011;28423;60.010;30.406;2022-09-09T12:11:32;5.95;;;2.28;;
42768;SDS011;28423;60.010;30.406;2022-09-09T12:13:58;6.32;;;1.65;;
42768;SDS011;28423;60.010;30.406;2022-09-09T12:16:34;4.82;;;2.30;;
42768;SDS011;28423;60.010;30.406;2022-09-09T12:32:21;3.38;;;1.27;;
42768;SDS011;28423;60.010;30.406;2022-09-09T12:37:32;2.90;;;1.35;;
42768;SDS011;28423;60.010;30.406;2022-09-09T12:40:20;4.83;;;2.33;;
42768;SDS011;28423;60.010;30.406;2022-09-09T12:42:57;3.63;;;0.98;;
42768;SDS011;28423;60.010;30.406;2022-09-09T12:45:28;6.82;;;1.67;;
42768;SDS011;28423;60.010;30.406;2022-09-09T12:50:32;3.28;;;1.40;;
42768;SDS011;28423;60.010;30.406;2022-09-09T12:53:09;2.95;;;1.70;;
42768;SDS011;28423;60.010;30.406;2022-09-09T12:55:36;3.38;;;1.70;;
42768;SDS011;28423;60.010;30.406;2022-09-09T12:58:03;3.10;;;1.08;;
42768;SDS011;28423;60.010;30.406;2022-09-09T13:00:31;2.03;;;0.98;;
42768;SDS011;28423;60.010;30.406;2022-09-09T13:02:59;3.17;;;1.40;;
42768;SDS011;28423;60.010;30.406;2022-09-09T13:05:40;3.92;;;1.30;;
42768;SDS011;28423;60.010;30.406;2022-09-09T13:08:07;3.83;;;1.10;;
42768;SDS011;28423;60.010;30.406;2022-09-09T13:10:40;5.97;;;1.20;;
42768;SDS011;28423;60.010;30.406;2022-09-09T13:13:24;5.53;;;1.63;;
42768;SDS011;28423;60.010;30.406;2022-09-09T13:15:56;5.05;;;1.30;;
42768;SDS011;28423;60.010;30.406;2022-09-09T13:18:23;4.13;;;1.17;;
42768;SDS011;28423;60.010;30.406;2022-09-09T13:20:50;4.03;;;1.10;;
42768;SDS011;28423;60.010;30.406;2022-09-09T13:23:17;8.20;;;1.20;;
42768;SDS011;28423;60.010;30.406;2022-09-09T13:25:55;7.35;;;1.65;;
42768;SDS011;28423;60.010;30.406;2022-09-09T13:28:25;2.78;;;1.10;;
42768;SDS011;28423;60.010;30.406;2022-09-09T13:30:58;4.82;;;1.17;;
42768;SDS011;28423;60.010;30.406;2022-09-09T13:33:32;7.20;;;1.30;;
42768;SDS011;28423;60.010;30.406;2022-09-09T13:36:11;2.67;;;1.20;;
42768;SDS011;28423;60.010;30.406;2022-09-09T13:41:36;2.75;;;1.05;;
42768;SDS011;28423;60.010;30.406;2022-09-09T13:44:14;5.15;;;1.42;;
42768;SDS011;28423;60.010;30.406;2022-09-09T13:46:45;3.97;;;1.27;;
42768;SDS011;28423;60.010;30.406;2022-09-09T13:54:11;1.92;;;1.00;;
42768;SDS011;28423;60.010;30.406;2022-09-09T13:56:38;2.80;;;1.20;;
42768;SDS011;28423;60.010;30.406;2022-09-09T13:59:05;2.10;;;1.27;;
42768;SDS011;28423;60.010;30.406;2022-09-09T14:01:31;2.25;;;1.35;;
42768;SDS011;28423;60.010;30.406;2022-09-09T14:04:00;5.78;;;1.52;;
42768;SDS011;28423;60.010;30.406;2022-09-09T14:06:26;5.57;;;1.80;;
42768;SDS011;28423;60.010;30.406;2022-09-09T14:08:52;3.60;;;1.70;;
42768;SDS011;28423;60.010;30.406;2022-09-09T14:11:19;3.05;;;1.70;;
42768;SDS011;28423;60.010;30.406;2022-09-09T14:13:46;5.22;;;1.40;;
42768;SDS011;28423;60.010;30.406;2022-09-09T14:16:15;2.80;;;1.38;;
42768;SDS011;28423;60.010;30.406;2022-09-09T14:18:44;2.70;;;1.48;;
42768;SDS011;28423;60.010;30.406;2022-09-09T14:21:10;3.22;;;1.42;;
42768;SDS011;28423;60.010;30.406;2022-09-09T14:23:36;4.38;;;1.30;;
42768;SDS011;28423;60.010;30.406;2022-09-09T14:26:03;5.38;;;1.50;;
42768;SDS011;28423;60.010;30.406;2022-09-09T14:28:33;4.93;;;1.92;;
42768;SDS011;28423;60.010;30.406;2022-09-09T14:30:59;6.00;;;1.55;;
42768;SDS011;28423;60.010;30.406;2022-09-09T14:33:26;9.70;;;2.20;;
42768;SDS011;28423;60.010;30.406;2022-09-09T14:36:00;6.18;;;2.28;;
42768;SDS011;28423;60.010;30.406;2022-09-09T14:38:31;8.88;;;2.45;;
42768;SDS011;28423;60.010;30.406;2022-09-09T14:40:59;10.95;;;2.80;;
42768;SDS011;28423;60.010;30.406;2022-09-09T14:43:26;16.67;;;5.60;;
42768;SDS011;28423;60.010;30.406;2022-09-09T14:45:52;7.07;;;3.80;;
42768;SDS011;28423;60.010;30.406;2022-09-09T14:48:18;7.65;;;2.70;;
42768;SDS011;28423;60.010;30.406;2022-09-09T14:50:44;8.85;;;2.45;;
42768;SDS011;28423;60.010;30.406;2022-09-09T14:53:09;5.93;;;2.67;;
42768;SDS011;28423;60.010;30.406;2022-09-09T14:55:35;10.38;;;2.75;;
42768;SDS011;28423;60.010;30.406;2022-09-09T14:58:01;7.57;;;2.75;;
42768;SDS011;28423;60.010;30.406;2022-09-09T15:00:29;3.30;;;1.50;;
42768;SDS011;28423;60.010;30.406;2022-09-09T15:02:54;2.90;;;1.60;;
42768;SDS011;28423;60.010;30.406;2022-09-09T15:05:21;5.20;;;1.60;;
42768;SDS011;28423;60.010;30.406;2022-09-09T15:07:46;5.45;;;1.65;;
42768;SDS011;28423;60.010;30.406;2022-09-09T15:10:13;5.45;;;2.00;;
42768;SDS011;28423;60.010;30.406;2022-09-09T15:12:39;4.65;;;2.00;;
42768;SDS011;28423;60.010;30.406;2022-09-09T15:15:07;4.20;;;1.98;;
42768;SDS011;28423;60.010;30.406;2022-09-09T15:17:32;7.88;;;2.25;;
42768;SDS011;28423;60.010;30.406;2022-09-09T15:19:58;4.50;;;2.00;;
42768;SDS011;28423;60.010;30.406;2022-09-09T15:22:24;8.90;;;2.63;;
42768;SDS011;28423;60.010;30.406;2022-09-09T15:24:50;5.28;;;1.80;;
42768;SDS011;28423;60.010;30.406;2022-09-09T15:27:15;6.07;;;1.70;;
42768;SDS011;28423;60.010;30.406;2022-09-09T15:29:42;4.32;;;1.80;;
42768;SDS011;28423;60.010;30.406;2022-09-09T15:32:09;5.68;;;1.77;;
42768;SDS011;28423;60.010;30.406;2022-09-09T15:34:35;3.58;;;1.75;;
42768;SDS011;28423;60.010;30.406;2022-09-09T15:37:00;3.45;;;1.85;;
42768;SDS011;28423;60.010;30.406;2022-09-09T15:39:26;5.80;;;2.67;;
42768;SDS011;28423;60.010;30.406;2022-09-09T15:41:52;9.27;;;4.50;;
42768;SDS011;28423;60.010;30.406;2022-09-09T15:44:18;4.82;;;1.80;;
42768;SDS011;28423;60.010;30.406;2022-09-09T15:46:50;10.23;;;2.47;;
42768;SDS011;28423;60.010;30.406;2022-09-09T15:49:19;6.85;;;2.15;;
42768;SDS011;28423;60.010;30.406;2022-09-09T15:51:57;5.18;;;1.90;;
42768;SDS011;28423;60.010;30.406;2022-09-09T15:54:24;3.78;;;1.60;;
42768;SDS011;28423;60.010;30.406;2022-09-09T15:56:52;4.70;;;1.75;;
42768;SDS011;28423;60.010;30.406;2022-09-09T15:59:20;5.93;;;2.30;;
42768;SDS011;28423;60.010;30.406;2022-09-09T16:01:47;7.25;;;3.38;;
42768;SDS011;28423;60.010;30.406;2022-09-09T16:04:16;6.78;;;2.30;;
42768;SDS011;28423;60.010;30.406;2022-09-09T16:06:52;8.35;;;2.60;;
42768;SDS011;28423;60.010;30.406;2022-09-09T16:09:18;13.60;;;1.92;;
42768;SDS011;28423;60.010;30.406;2022-09-09T16:11:44;8.15;;;3.30;;
42768;SDS011;28423;60.010;30.406;2022-09-09T16:14:09;7.18;;;2.30;;
42768;SDS011;28423;60.010;30.406;2022-09-09T16:16:36;6.47;;;2.67;;
42768;SDS011;28423;60.010;30.406;2022-09-09T16:19:03;7.13;;;2.70;;
42768;SDS011;28423;60.010;30.406;2022-09-09T16:21:36;5.78;;;2.08;;
42768;SDS011;28423;60.010;30.406;2022-09-09T16:24:05;8.80;;;2.47;;
42768;SDS011;28423;60.010;30.406;2022-09-09T16:26:32;6.00;;;2.15;;
42768;SDS011;28423;60.010;30.406;2022-09-09T16:28:58;9.55;;;2.42;;
42768;SDS011;28423;60.010;30.406;2022-09-09T16:31:25;9.90;;;2.78;;
42768;SDS011;28423;60.010;30.406;2022-09-09T16:33:52;8.82;;;2.30;;
42768;SDS011;28423;60.010;30.406;2022-09-09T16:36:19;10.35;;;4.00;;
42768;SDS011;28423;60.010;30.406;2022-09-09T16:38:46;10.30;;;3.50;;
42768;SDS011;28423;60.010;30.406;2022-09-09T16:41:12;8.68;;;2.90;;
42768;SDS011;28423;60.010;30.406;2022-09-09T16:43:39;6.43;;;2.92;;
42768;SDS011;28423;60.010;30.406;2022-09-09T16:46:18;10.00;;;3.70;;
42768;SDS011;28423;60.010;30.406;2022-09-09T16:48:45;7.82;;;3.75;;
42768;SDS011;28423;60.010;30.406;2022-09-09T16:51:13;13.65;;;3.67;;
42768;SDS011;28423;60.010;30.406;2022-09-09T16:53:40;11.93;;;4.07;;
42768;SDS011;28423;60.010;30.406;2022-09-09T16:56:10;8.73;;;3.90;;
42768;SDS011;28423;60.010;30.406;2022-09-09T16:58:37;8.55;;;4.53;;
42768;SDS011;28423;60.010;30.406;2022-09-09T17:01:03;9.05;;;4.57;;
42768;SDS011;28423;60.010;30.406;2022-09-09T17:03:30;11.45;;;4.22;;
42768;SDS011;28423;60.010;30.406;2022-09-09T17:05:59;10.80;;;4.78;;
42768;SDS011;28423;60.010;30.406;2022-09-09T17:08:31;17.58;;;5.43;;
42768;SDS011;28423;60.010;30.406;2022-09-09T17:10:58;9.45;;;4.00;;
42768;SDS011;28423;60.010;30.406;2022-09-09T17:13:24;11.88;;;5.50;;